Deganwy, United Kingdom
Current Conditions -  °F | °C
As of 3:50 PM on Saturday 20 Dec 2014 (Local Time) from EGOV Reporting Station
Broken Clouds Broken Clouds  
Wind Chill: 43°   Ceiling: 3200
Heat Index: 48°   Visibility: 6mi
Dew Point: 39°   Wind: 13mph
Humidity: 71%   Direction: 280°W
Pressure: 30.36"   Gusts: NA
Location:  53.3°N, 3.83°W
Report Text: EGOV 201550Z AUTO 28011KT 9999 BKN032/// 09/04 Q1028
Loading
Personal Weather Stations






























Interactive Weather Map New forecast layout! Learn more

10-Day Weather Forecast

Advertisements
Track Severe Weather on mobile